sensor_id;sensor_type;location;lat;lon;timestamp;P1;durP1;ratioP1;P2;durP2;ratioP2
70153;SDS011;57519;51.494;-2.626;2023-06-10T00:01:58;15.00;;;8.20;;
70153;SDS011;57519;51.494;-2.626;2023-06-10T00:04:25;18.10;;;8.10;;
70153;SDS011;57519;51.494;-2.626;2023-06-10T00:06:52;17.13;;;7.63;;
70153;SDS011;57519;51.494;-2.626;2023-06-10T00:09:18;20.17;;;8.75;;
70153;SDS011;57519;51.494;-2.626;2023-06-10T00:11:47;18.92;;;8.60;;
70153;SDS011;57519;51.494;-2.626;2023-06-10T00:14:13;18.43;;;7.80;;
70153;SDS011;57519;51.494;-2.626;2023-06-10T00:16:39;22.67;;;9.65;;
70153;SDS011;57519;51.494;-2.626;2023-06-10T00:19:04;18.03;;;8.70;;
70153;SDS011;57519;51.494;-2.626;2023-06-10T00:21:33;15.50;;;7.78;;
70153;SDS011;57519;51.494;-2.626;2023-06-10T00:24:05;16.65;;;9.13;;
70153;SDS011;57519;51.494;-2.626;2023-06-10T00:26:32;22.80;;;9.23;;
70153;SDS011;57519;51.494;-2.626;2023-06-10T00:28:58;17.90;;;9.48;;
70153;SDS011;57519;51.494;-2.626;2023-06-10T00:31:29;20.10;;;9.77;;
70153;SDS011;57519;51.494;-2.626;2023-06-10T00:33:55;18.73;;;8.57;;
70153;SDS011;57519;51.494;-2.626;2023-06-10T00:36:21;20.00;;;9.37;;
70153;SDS011;57519;51.494;-2.626;2023-06-10T00:38:46;21.13;;;8.20;;
70153;SDS011;57519;51.494;-2.626;2023-06-10T00:41:12;24.57;;;8.40;;
70153;SDS011;57519;51.494;-2.626;2023-06-10T00:43:37;21.47;;;8.80;;
70153;SDS011;57519;51.494;-2.626;2023-06-10T00:46:02;16.67;;;8.77;;
70153;SDS011;57519;51.494;-2.626;2023-06-10T00:48:28;20.38;;;8.75;;
70153;SDS011;57519;51.494;-2.626;2023-06-10T00:54:15;21.25;;;8.77;;
70153;SDS011;57519;51.494;-2.626;2023-06-10T01:00:03;19.33;;;7.90;;
70153;SDS011;57519;51.494;-2.626;2023-06-10T01:05:57;22.00;;;9.75;;
70153;SDS011;57519;51.494;-2.626;2023-06-10T01:11:47;18.00;;;9.13;;
70153;SDS011;57519;51.494;-2.626;2023-06-10T01:14:28;25.77;;;9.27;;
70153;SDS011;57519;51.494;-2.626;2023-06-10T01:16:56;24.42;;;8.98;;
70153;SDS011;57519;51.494;-2.626;2023-06-10T01:19:23;17.08;;;8.90;;
70153;SDS011;57519;51.494;-2.626;2023-06-10T01:21:49;25.27;;;9.45;;
70153;SDS011;57519;51.494;-2.626;2023-06-10T01:34:01;18.17;;;9.10;;
70153;SDS011;57519;51.494;-2.626;2023-06-10T01:36:32;20.38;;;9.25;;
70153;SDS011;57519;51.494;-2.626;2023-06-10T01:38:59;23.90;;;9.35;;
70153;SDS011;57519;51.494;-2.626;2023-06-10T01:41:26;17.90;;;9.13;;
70153;SDS011;57519;51.494;-2.626;2023-06-10T01:43:51;23.33;;;9.00;;
70153;SDS011;57519;51.494;-2.626;2023-06-10T01:46:17;19.97;;;8.87;;
70153;SDS011;57519;51.494;-2.626;2023-06-10T01:48:46;17.42;;;9.00;;
70153;SDS011;57519;51.494;-2.626;2023-06-10T01:57:27;18.00;;;8.40;;
70153;SDS011;57519;51.494;-2.626;2023-06-10T02:03:15;20.20;;;9.05;;
70153;SDS011;57519;51.494;-2.626;2023-06-10T02:05:40;19.70;;;8.93;;
70153;SDS011;57519;51.494;-2.626;2023-06-10T02:08:06;22.47;;;9.17;;
70153;SDS011;57519;51.494;-2.626;2023-06-10T02:13:58;23.23;;;10.23;;
70153;SDS011;57519;51.494;-2.626;2023-06-10T02:19:45;21.45;;;9.98;;
70153;SDS011;57519;51.494;-2.626;2023-06-10T02:22:19;23.50;;;10.37;;
70153;SDS011;57519;51.494;-2.626;2023-06-10T02:24:46;22.98;;;10.95;;
70153;SDS011;57519;51.494;-2.626;2023-06-10T02:30:40;19.27;;;9.48;;
70153;SDS011;57519;51.494;-2.626;2023-06-10T02:33:23;24.00;;;9.90;;
70153;SDS011;57519;51.494;-2.626;2023-06-10T02:39:11;16.45;;;9.68;;
70153;SDS011;57519;51.494;-2.626;2023-06-10T02:41:37;21.20;;;10.20;;
70153;SDS011;57519;51.494;-2.626;2023-06-10T02:47:24;22.23;;;10.43;;
70153;SDS011;57519;51.494;-2.626;2023-06-10T02:49:50;16.53;;;9.27;;
70153;SDS011;57519;51.494;-2.626;2023-06-10T02:52:15;24.73;;;10.93;;
70153;SDS011;57519;51.494;-2.626;2023-06-10T02:54:40;23.75;;;10.90;;
70153;SDS011;57519;51.494;-2.626;2023-06-10T02:57:06;25.67;;;10.80;;
70153;SDS011;57519;51.494;-2.626;2023-06-10T02:59:32;26.33;;;10.80;;
70153;SDS011;57519;51.494;-2.626;2023-06-10T03:01:58;22.50;;;11.07;;
70153;SDS011;57519;51.494;-2.626;2023-06-10T03:04:26;24.73;;;10.30;;
70153;SDS011;57519;51.494;-2.626;2023-06-10T03:06:54;29.17;;;11.80;;
70153;SDS011;57519;51.494;-2.626;2023-06-10T03:09:19;30.33;;;12.47;;
70153;SDS011;57519;51.494;-2.626;2023-06-10T03:11:46;24.27;;;11.27;;
70153;SDS011;57519;51.494;-2.626;2023-06-10T03:14:11;28.95;;;11.30;;
70153;SDS011;57519;51.494;-2.626;2023-06-10T03:16:37;27.27;;;11.30;;
70153;SDS011;57519;51.494;-2.626;2023-06-10T03:19:05;22.88;;;11.18;;
70153;SDS011;57519;51.494;-2.626;2023-06-10T03:21:32;26.92;;;12.40;;
70153;SDS011;57519;51.494;-2.626;2023-06-10T03:23:57;26.70;;;12.30;;
70153;SDS011;57519;51.494;-2.626;2023-06-10T03:26:23;23.53;;;11.67;;
70153;SDS011;57519;51.494;-2.626;2023-06-10T03:28:48;27.70;;;9.73;;
70153;SDS011;57519;51.494;-2.626;2023-06-10T03:31:13;32.03;;;12.23;;
70153;SDS011;57519;51.494;-2.626;2023-06-10T03:33:41;26.23;;;11.70;;
70153;SDS011;57519;51.494;-2.626;2023-06-10T03:36:07;28.83;;;11.60;;
70153;SDS011;57519;51.494;-2.626;2023-06-10T03:42:00;29.38;;;12.60;;
70153;SDS011;57519;51.494;-2.626;2023-06-10T03:47:48;25.30;;;11.43;;
70153;SDS011;57519;51.494;-2.626;2023-06-10T03:50:13;27.83;;;12.47;;
70153;SDS011;57519;51.494;-2.626;2023-06-10T03:52:38;23.97;;;12.00;;
70153;SDS011;57519;51.494;-2.626;2023-06-10T03:55:05;28.30;;;11.70;;
70153;SDS011;57519;51.494;-2.626;2023-06-10T03:57:31;25.17;;;12.98;;
70153;SDS011;57519;51.494;-2.626;2023-06-10T03:59:56;24.57;;;11.37;;
70153;SDS011;57519;51.494;-2.626;2023-06-10T04:02:23;26.05;;;12.88;;
70153;SDS011;57519;51.494;-2.626;2023-06-10T04:04:48;27.50;;;11.27;;
70153;SDS011;57519;51.494;-2.626;2023-06-10T04:07:14;28.80;;;13.70;;
70153;SDS011;57519;51.494;-2.626;2023-06-10T04:09:39;21.35;;;10.75;;
70153;SDS011;57519;51.494;-2.626;2023-06-10T04:12:05;31.00;;;13.73;;
70153;SDS011;57519;51.494;-2.626;2023-06-10T04:14:35;29.67;;;14.32;;
70153;SDS011;57519;51.494;-2.626;2023-06-10T04:17:02;26.65;;;13.10;;
70153;SDS011;57519;51.494;-2.626;2023-06-10T04:19:31;27.23;;;12.03;;
70153;SDS011;57519;51.494;-2.626;2023-06-10T04:21:57;35.35;;;14.23;;
70153;SDS011;57519;51.494;-2.626;2023-06-10T04:24:22;25.40;;;12.00;;
70153;SDS011;57519;51.494;-2.626;2023-06-10T04:26:48;25.13;;;11.90;;
70153;SDS011;57519;51.494;-2.626;2023-06-10T04:29:13;35.42;;;14.13;;
70153;SDS011;57519;51.494;-2.626;2023-06-10T04:31:39;28.47;;;12.60;;
70153;SDS011;57519;51.494;-2.626;2023-06-10T04:34:04;33.53;;;13.63;;
70153;SDS011;57519;51.494;-2.626;2023-06-10T04:36:31;31.08;;;13.68;;
70153;SDS011;57519;51.494;-2.626;2023-06-10T04:38:57;29.40;;;12.20;;
70153;SDS011;57519;51.494;-2.626;2023-06-10T04:41:22;31.27;;;13.33;;
70153;SDS011;57519;51.494;-2.626;2023-06-10T04:43:47;25.50;;;11.83;;
70153;SDS011;57519;51.494;-2.626;2023-06-10T04:46:13;29.90;;;13.40;;
70153;SDS011;57519;51.494;-2.626;2023-06-10T04:48:38;33.92;;;13.07;;
70153;SDS011;57519;51.494;-2.626;2023-06-10T04:51:04;30.50;;;13.97;;
70153;SDS011;57519;51.494;-2.626;2023-06-10T04:53:30;29.95;;;13.13;;
70153;SDS011;57519;51.494;-2.626;2023-06-10T04:55:56;32.75;;;14.40;;
70153;SDS011;57519;51.494;-2.626;2023-06-10T04:58:22;25.47;;;13.47;;
70153;SDS011;57519;51.494;-2.626;2023-06-10T05:00:48;26.67;;;13.00;;
70153;SDS011;57519;51.494;-2.626;2023-06-10T05:03:14;29.63;;;12.77;;
70153;SDS011;57519;51.494;-2.626;2023-06-10T05:05:39;25.10;;;12.83;;
70153;SDS011;57519;51.494;-2.626;2023-06-10T05:08:08;29.05;;;11.95;;
70153;SDS011;57519;51.494;-2.626;2023-06-10T05:10:33;27.00;;;13.13;;
70153;SDS011;57519;51.494;-2.626;2023-06-10T05:12:59;28.37;;;11.63;;
70153;SDS011;57519;51.494;-2.626;2023-06-10T05:15:24;30.02;;;13.05;;
70153;SDS011;57519;51.494;-2.626;2023-06-10T05:17:56;24.50;;;12.60;;
70153;SDS011;57519;51.494;-2.626;2023-06-10T05:20:23;25.63;;;11.70;;
70153;SDS011;57519;51.494;-2.626;2023-06-10T05:22:50;30.30;;;14.13;;
70153;SDS011;57519;51.494;-2.626;2023-06-10T05:25:15;37.10;;;13.27;;
70153;SDS011;57519;51.494;-2.626;2023-06-10T05:31:03;24.23;;;11.38;;
70153;SDS011;57519;51.494;-2.626;2023-06-10T05:33:29;31.70;;;14.97;;
70153;SDS011;57519;51.494;-2.626;2023-06-10T05:35:54;33.90;;;12.27;;
70153;SDS011;57519;51.494;-2.626;2023-06-10T05:38:20;26.73;;;12.23;;
70153;SDS011;57519;51.494;-2.626;2023-06-10T05:40:45;32.37;;;12.70;;
70153;SDS011;57519;51.494;-2.626;2023-06-10T05:43:11;33.10;;;13.40;;
70153;SDS011;57519;51.494;-2.626;2023-06-10T05:45:37;32.43;;;12.53;;
70153;SDS011;57519;51.494;-2.626;2023-06-10T05:48:02;30.33;;;12.25;;
70153;SDS011;57519;51.494;-2.626;2023-06-10T05:50:28;30.30;;;11.60;;
70153;SDS011;57519;51.494;-2.626;2023-06-10T05:52:53;32.23;;;13.73;;
70153;SDS011;57519;51.494;-2.626;2023-06-10T05:55:20;28.73;;;12.00;;
70153;SDS011;57519;51.494;-2.626;2023-06-10T05:57:45;26.58;;;11.40;;
70153;SDS011;57519;51.494;-2.626;2023-06-10T06:00:11;30.57;;;13.30;;
70153;SDS011;57519;51.494;-2.626;2023-06-10T06:02:37;26.45;;;11.88;;
70153;SDS011;57519;51.494;-2.626;2023-06-10T06:05:02;27.73;;;11.77;;
70153;SDS011;57519;51.494;-2.626;2023-06-10T06:07:28;26.52;;;12.90;;
70153;SDS011;57519;51.494;-2.626;2023-06-10T06:09:53;25.43;;;13.00;;
70153;SDS011;57519;51.494;-2.626;2023-06-10T06:12:18;30.03;;;11.23;;
70153;SDS011;57519;51.494;-2.626;2023-06-10T06:14:44;28.57;;;12.57;;
70153;SDS011;57519;51.494;-2.626;2023-06-10T06:17:09;27.40;;;11.37;;
70153;SDS011;57519;51.494;-2.626;2023-06-10T06:19:35;26.67;;;10.57;;
70153;SDS011;57519;51.494;-2.626;2023-06-10T06:22:00;24.23;;;11.30;;
70153;SDS011;57519;51.494;-2.626;2023-06-10T06:24:26;28.60;;;11.97;;
70153;SDS011;57519;51.494;-2.626;2023-06-10T06:26:52;23.90;;;10.38;;
70153;SDS011;57519;51.494;-2.626;2023-06-10T06:29:18;31.17;;;11.03;;
70153;SDS011;57519;51.494;-2.626;2023-06-10T06:31:43;25.60;;;11.33;;
70153;SDS011;57519;51.494;-2.626;2023-06-10T06:34:08;25.20;;;11.05;;
70153;SDS011;57519;51.494;-2.626;2023-06-10T06:36:34;29.37;;;13.47;;
70153;SDS011;57519;51.494;-2.626;2023-06-10T06:39:01;22.23;;;10.73;;
70153;SDS011;57519;51.494;-2.626;2023-06-10T06:41:26;27.83;;;12.43;;
70153;SDS011;57519;51.494;-2.626;2023-06-10T06:43:54;22.98;;;12.00;;
70153;SDS011;57519;51.494;-2.626;2023-06-10T06:46:22;25.27;;;12.70;;
70153;SDS011;57519;51.494;-2.626;2023-06-10T06:48:48;25.37;;;12.03;;
70153;SDS011;57519;51.494;-2.626;2023-06-10T06:51:13;28.73;;;12.60;;
70153;SDS011;57519;51.494;-2.626;2023-06-10T06:53:39;28.08;;;10.85;;
70153;SDS011;57519;51.494;-2.626;2023-06-10T06:56:09;29.92;;;12.18;;
70153;SDS011;57519;51.494;-2.626;2023-06-10T06:58:37;25.30;;;10.05;;
70153;SDS011;57519;51.494;-2.626;2023-06-10T07:01:03;21.23;;;10.63;;
70153;SDS011;57519;51.494;-2.626;2023-06-10T07:03:28;28.23;;;10.77;;
70153;SDS011;57519;51.494;-2.626;2023-06-10T07:05:54;25.20;;;11.98;;
70153;SDS011;57519;51.494;-2.626;2023-06-10T07:08:19;23.63;;;10.70;;
70153;SDS011;57519;51.494;-2.626;2023-06-10T07:10:44;20.60;;;9.63;;
70153;SDS011;57519;51.494;-2.626;2023-06-10T07:13:10;23.93;;;11.00;;
70153;SDS011;57519;51.494;-2.626;2023-06-10T07:15:36;27.30;;;11.20;;
70153;SDS011;57519;51.494;-2.626;2023-06-10T07:18:01;22.90;;;11.20;;
70153;SDS011;57519;51.494;-2.626;2023-06-10T07:20:26;20.13;;;9.80;;
70153;SDS011;57519;51.494;-2.626;2023-06-10T07:22:52;25.33;;;10.35;;
70153;SDS011;57519;51.494;-2.626;2023-06-10T07:25:17;23.20;;;10.40;;
70153;SDS011;57519;51.494;-2.626;2023-06-10T07:27:50;23.43;;;10.40;;
70153;SDS011;57519;51.494;-2.626;2023-06-10T07:30:15;19.25;;;10.63;;
70153;SDS011;57519;51.494;-2.626;2023-06-10T07:32:41;18.77;;;9.90;;
70153;SDS011;57519;51.494;-2.626;2023-06-10T07:35:11;27.83;;;10.50;;
70153;SDS011;57519;51.494;-2.626;2023-06-10T07:40:59;23.15;;;9.60;;
70153;SDS011;57519;51.494;-2.626;2023-06-10T07:43:27;19.75;;;10.43;;
70153;SDS011;57519;51.494;-2.626;2023-06-10T07:45:52;19.97;;;9.90;;
70153;SDS011;57519;51.494;-2.626;2023-06-10T07:48:18;20.40;;;9.90;;
70153;SDS011;57519;51.494;-2.626;2023-06-10T07:50:43;22.37;;;10.93;;
70153;SDS011;57519;51.494;-2.626;2023-06-10T07:53:09;19.00;;;10.05;;
70153;SDS011;57519;51.494;-2.626;2023-06-10T07:55:34;19.00;;;9.13;;
70153;SDS011;57519;51.494;-2.626;2023-06-10T07:58:00;21.07;;;10.17;;
70153;SDS011;57519;51.494;-2.626;2023-06-10T08:00:27;23.42;;;9.73;;
70153;SDS011;57519;51.494;-2.626;2023-06-10T08:02:53;21.03;;;9.37;;
70153;SDS011;57519;51.494;-2.626;2023-06-10T08:05:18;21.10;;;9.85;;
70153;SDS011;57519;51.494;-2.626;2023-06-10T08:07:45;20.23;;;9.50;;
70153;SDS011;57519;51.494;-2.626;2023-06-10T08:10:13;19.83;;;9.90;;
70153;SDS011;57519;51.494;-2.626;2023-06-10T08:13:04;20.33;;;9.87;;
70153;SDS011;57519;51.494;-2.626;2023-06-10T08:15:36;26.65;;;9.90;;
70153;SDS011;57519;51.494;-2.626;2023-06-10T08:18:03;24.80;;;9.98;;
70153;SDS011;57519;51.494;-2.626;2023-06-10T08:20:29;22.52;;;10.13;;
70153;SDS011;57519;51.494;-2.626;2023-06-10T08:22:54;22.00;;;9.70;;
70153;SDS011;57519;51.494;-2.626;2023-06-10T08:25:20;29.20;;;11.17;;
70153;SDS011;57519;51.494;-2.626;2023-06-10T08:27:47;21.02;;;9.00;;
70153;SDS011;57519;51.494;-2.626;2023-06-10T08:30:13;24.70;;;10.60;;
70153;SDS011;57519;51.494;-2.626;2023-06-10T08:32:38;20.53;;;10.23;;
70153;SDS011;57519;51.494;-2.626;2023-06-10T08:35:04;30.07;;;10.47;;
70153;SDS011;57519;51.494;-2.626;2023-06-10T08:37:30;26.90;;;10.05;;
70153;SDS011;57519;51.494;-2.626;2023-06-10T08:39:55;19.93;;;8.53;;
70153;SDS011;57519;51.494;-2.626;2023-06-10T08:42:33;20.52;;;9.25;;
70153;SDS011;57519;51.494;-2.626;2023-06-10T08:45:03;16.70;;;9.40;;
70153;SDS011;57519;51.494;-2.626;2023-06-10T08:47:30;22.38;;;9.23;;
70153;SDS011;57519;51.494;-2.626;2023-06-10T08:50:03;29.17;;;9.88;;
70153;SDS011;57519;51.494;-2.626;2023-06-10T08:52:33;20.88;;;10.15;;
70153;SDS011;57519;51.494;-2.626;2023-06-10T08:55:10;23.52;;;11.18;;
70153;SDS011;57519;51.494;-2.626;2023-06-10T08:57:37;21.17;;;10.17;;
70153;SDS011;57519;51.494;-2.626;2023-06-10T09:00:03;26.48;;;8.40;;
70153;SDS011;57519;51.494;-2.626;2023-06-10T09:02:30;22.05;;;10.35;;
70153;SDS011;57519;51.494;-2.626;2023-06-10T09:05:00;21.23;;;9.20;;
70153;SDS011;57519;51.494;-2.626;2023-06-10T09:07:25;25.60;;;10.03;;
70153;SDS011;57519;51.494;-2.626;2023-06-10T09:09:51;19.73;;;8.20;;
70153;SDS011;57519;51.494;-2.626;2023-06-10T09:12:18;20.33;;;8.48;;
70153;SDS011;57519;51.494;-2.626;2023-06-10T09:14:44;20.30;;;8.73;;
70153;SDS011;57519;51.494;-2.626;2023-06-10T09:17:10;22.07;;;9.20;;
70153;SDS011;57519;51.494;-2.626;2023-06-10T09:19:36;20.15;;;8.27;;
70153;SDS011;57519;51.494;-2.626;2023-06-10T09:22:03;20.05;;;8.48;;
70153;SDS011;57519;51.494;-2.626;2023-06-10T09:24:29;18.50;;;8.10;;
70153;SDS011;57519;51.494;-2.626;2023-06-10T09:27:04;20.50;;;8.33;;
70153;SDS011;57519;51.494;-2.626;2023-06-10T09:29:31;16.38;;;8.05;;
70153;SDS011;57519;51.494;-2.626;2023-06-10T09:31:57;20.17;;;8.13;;
70153;SDS011;57519;51.494;-2.626;2023-06-10T09:34:24;17.33;;;7.10;;
70153;SDS011;57519;51.494;-2.626;2023-06-10T09:36:51;17.70;;;7.57;;
70153;SDS011;57519;51.494;-2.626;2023-06-10T09:39:17;17.30;;;8.30;;
70153;SDS011;57519;51.494;-2.626;2023-06-10T09:41:46;17.33;;;7.43;;
70153;SDS011;57519;51.494;-2.626;2023-06-10T09:44:21;19.40;;;7.68;;
70153;SDS011;57519;51.494;-2.626;2023-06-10T09:46:49;13.73;;;7.13;;
70153;SDS011;57519;51.494;-2.626;2023-06-10T09:49:19;19.77;;;8.88;;
70153;SDS011;57519;51.494;-2.626;2023-06-10T09:51:49;16.73;;;8.20;;
70153;SDS011;57519;51.494;-2.626;2023-06-10T09:54:16;22.48;;;7.93;;
70153;SDS011;57519;51.494;-2.626;2023-06-10T09:56:41;19.97;;;8.23;;
70153;SDS011;57519;51.494;-2.626;2023-06-10T09:59:07;23.05;;;8.40;;
70153;SDS011;57519;51.494;-2.626;2023-06-10T10:01:36;19.77;;;8.15;;
70153;SDS011;57519;51.494;-2.626;2023-06-10T10:04:02;16.27;;;7.40;;
70153;SDS011;57519;51.494;-2.626;2023-06-10T10:06:29;16.55;;;7.80;;
70153;SDS011;57519;51.494;-2.626;2023-06-10T10:08:55;20.90;;;8.68;;
70153;SDS011;57519;51.494;-2.626;2023-06-10T10:11:23;22.08;;;8.68;;
70153;SDS011;57519;51.494;-2.626;2023-06-10T10:13:51;18.83;;;8.30;;
70153;SDS011;57519;51.494;-2.626;2023-06-10T10:16:19;19.50;;;7.70;;
70153;SDS011;57519;51.494;-2.626;2023-06-10T10:18:47;17.15;;;7.85;;
70153;SDS011;57519;51.494;-2.626;2023-06-10T10:21:18;23.92;;;8.65;;
70153;SDS011;57519;51.494;-2.626;2023-06-10T10:26:37;15.57;;;7.75;;
70153;SDS011;57519;51.494;-2.626;2023-06-10T10:31:44;19.95;;;8.50;;
70153;SDS011;57519;51.494;-2.626;2023-06-10T10:34:13;20.33;;;8.43;;
70153;SDS011;57519;51.494;-2.626;2023-06-10T10:36:42;17.08;;;7.57;;
70153;SDS011;57519;51.494;-2.626;2023-06-10T10:39:09;15.45;;;7.15;;
70153;SDS011;57519;51.494;-2.626;2023-06-10T10:41:35;21.10;;;8.30;;
70153;SDS011;57519;51.494;-2.626;2023-06-10T10:44:03;19.73;;;8.43;;
70153;SDS011;57519;51.494;-2.626;2023-06-10T10:46:39;17.35;;;7.80;;
70153;SDS011;57519;51.494;-2.626;2023-06-10T10:49:07;19.63;;;8.57;;
70153;SDS011;57519;51.494;-2.626;2023-06-10T10:51:52;19.83;;;9.00;;
70153;SDS011;57519;51.494;-2.626;2023-06-10T10:54:21;17.80;;;7.97;;
70153;SDS011;57519;51.494;-2.626;2023-06-10T11:02:15;15.82;;;7.40;;
70153;SDS011;57519;51.494;-2.626;2023-06-10T11:04:48;12.90;;;6.90;;
70153;SDS011;57519;51.494;-2.626;2023-06-10T11:07:14;17.92;;;8.48;;
70153;SDS011;57519;51.494;-2.626;2023-06-10T11:12:49;18.17;;;8.43;;
70153;SDS011;57519;51.494;-2.626;2023-06-10T11:15:19;20.23;;;8.77;;
70153;SDS011;57519;51.494;-2.626;2023-06-10T11:28:39;18.75;;;8.52;;
70153;SDS011;57519;51.494;-2.626;2023-06-10T11:33:53;18.83;;;7.22;;
70153;SDS011;57519;51.494;-2.626;2023-06-10T11:36:21;14.13;;;7.03;;
70153;SDS011;57519;51.494;-2.626;2023-06-10T11:38:46;17.48;;;7.85;;
70153;SDS011;57519;51.494;-2.626;2023-06-10T11:41:13;17.55;;;7.72;;
70153;SDS011;57519;51.494;-2.626;2023-06-10T11:43:45;16.50;;;7.77;;
70153;SDS011;57519;51.494;-2.626;2023-06-10T11:46:13;14.95;;;7.43;;
70153;SDS011;57519;51.494;-2.626;2023-06-10T11:48:39;17.70;;;7.88;;
70153;SDS011;57519;51.494;-2.626;2023-06-10T11:51:13;16.58;;;7.57;;
70153;SDS011;57519;51.494;-2.626;2023-06-10T11:53:38;17.67;;;8.43;;
70153;SDS011;57519;51.494;-2.626;2023-06-10T11:56:04;19.73;;;7.87;;
70153;SDS011;57519;51.494;-2.626;2023-06-10T11:58:29;16.40;;;8.20;;
70153;SDS011;57519;51.494;-2.626;2023-06-10T12:00:55;15.57;;;7.23;;
70153;SDS011;57519;51.494;-2.626;2023-06-10T12:03:24;16.35;;;8.30;;
70153;SDS011;57519;51.494;-2.626;2023-06-10T12:08:23;16.10;;;7.63;;
70153;SDS011;57519;51.494;-2.626;2023-06-10T12:10:49;16.02;;;8.02;;
70153;SDS011;57519;51.494;-2.626;2023-06-10T12:13:15;17.95;;;7.82;;
70153;SDS011;57519;51.494;-2.626;2023-06-10T12:15:43;21.33;;;7.85;;
70153;SDS011;57519;51.494;-2.626;2023-06-10T12:18:21;12.37;;;6.50;;
70153;SDS011;57519;51.494;-2.626;2023-06-10T12:20:47;16.60;;;7.18;;
70153;SDS011;57519;51.494;-2.626;2023-06-10T12:23:13;16.25;;;7.68;;
70153;SDS011;57519;51.494;-2.626;2023-06-10T12:25:41;16.45;;;7.53;;
70153;SDS011;57519;51.494;-2.626;2023-06-10T12:28:17;15.23;;;7.40;;
70153;SDS011;57519;51.494;-2.626;2023-06-10T12:31:05;17.27;;;7.27;;
70153;SDS011;57519;51.494;-2.626;2023-06-10T12:33:35;20.95;;;7.20;;
70153;SDS011;57519;51.494;-2.626;2023-06-10T12:36:05;19.50;;;8.77;;
70153;SDS011;57519;51.494;-2.626;2023-06-10T12:38:41;20.48;;;8.80;;
70153;SDS011;57519;51.494;-2.626;2023-06-10T12:41:07;18.52;;;9.00;;
70153;SDS011;57519;51.494;-2.626;2023-06-10T12:43:33;17.40;;;8.50;;
70153;SDS011;57519;51.494;-2.626;2023-06-10T12:46:08;17.98;;;9.48;;
70153;SDS011;57519;51.494;-2.626;2023-06-10T12:48:35;14.82;;;8.13;;
70153;SDS011;57519;51.494;-2.626;2023-06-10T12:51:00;21.33;;;9.47;;
70153;SDS011;57519;51.494;-2.626;2023-06-10T12:53:26;21.15;;;9.57;;
70153;SDS011;57519;51.494;-2.626;2023-06-10T12:55:52;21.67;;;8.70;;
70153;SDS011;57519;51.494;-2.626;2023-06-10T12:58:21;18.90;;;9.13;;
70153;SDS011;57519;51.494;-2.626;2023-06-10T13:00:48;19.38;;;8.15;;
70153;SDS011;57519;51.494;-2.626;2023-06-10T13:03:15;21.10;;;9.20;;
70153;SDS011;57519;51.494;-2.626;2023-06-10T13:05:43;18.13;;;9.25;;
70153;SDS011;57519;51.494;-2.626;2023-06-10T13:08:08;18.17;;;9.43;;
70153;SDS011;57519;51.494;-2.626;2023-06-10T13:10:37;21.38;;;8.70;;
70153;SDS011;57519;51.494;-2.626;2023-06-10T13:13:02;22.53;;;9.60;;
70153;SDS011;57519;51.494;-2.626;2023-06-10T13:15:31;16.23;;;9.35;;
70153;SDS011;57519;51.494;-2.626;2023-06-10T13:17:57;21.63;;;9.23;;
70153;SDS011;57519;51.494;-2.626;2023-06-10T13:20:23;18.20;;;9.13;;
70153;SDS011;57519;51.494;-2.626;2023-06-10T13:22:49;18.70;;;8.87;;
70153;SDS011;57519;51.494;-2.626;2023-06-10T13:25:14;23.33;;;9.43;;
70153;SDS011;57519;51.494;-2.626;2023-06-10T13:27:40;23.30;;;9.18;;
70153;SDS011;57519;51.494;-2.626;2023-06-10T13:30:07;20.38;;;9.93;;
70153;SDS011;57519;51.494;-2.626;2023-06-10T13:32:34;21.48;;;9.93;;
70153;SDS011;57519;51.494;-2.626;2023-06-10T13:35:03;17.17;;;9.47;;
70153;SDS011;57519;51.494;-2.626;2023-06-10T13:37:33;18.73;;;8.25;;
70153;SDS011;57519;51.494;-2.626;2023-06-10T13:40:02;18.67;;;8.90;;
70153;SDS011;57519;51.494;-2.626;2023-06-10T13:42:27;15.30;;;8.82;;
70153;SDS011;57519;51.494;-2.626;2023-06-10T13:44:54;16.10;;;8.27;;
70153;SDS011;57519;51.494;-2.626;2023-06-10T13:47:19;21.90;;;8.13;;
70153;SDS011;57519;51.494;-2.626;2023-06-10T13:49:45;20.10;;;9.18;;
70153;SDS011;57519;51.494;-2.626;2023-06-10T13:52:11;19.33;;;9.00;;
70153;SDS011;57519;51.494;-2.626;2023-06-10T13:54:36;18.90;;;8.33;;
70153;SDS011;57519;51.494;-2.626;2023-06-10T13:57:02;17.27;;;8.90;;
70153;SDS011;57519;51.494;-2.626;2023-06-10T13:59:28;19.67;;;8.97;;
70153;SDS011;57519;51.494;-2.626;2023-06-10T14:01:53;19.60;;;9.98;;
70153;SDS011;57519;51.494;-2.626;2023-06-10T14:04:19;18.40;;;8.77;;
70153;SDS011;57519;51.494;-2.626;2023-06-10T14:06:44;18.37;;;8.63;;
70153;SDS011;57519;51.494;-2.626;2023-06-10T14:09:10;20.38;;;9.50;;
70153;SDS011;57519;51.494;-2.626;2023-06-10T14:11:38;24.67;;;9.93;;
70153;SDS011;57519;51.494;-2.626;2023-06-10T14:14:04;19.40;;;8.53;;
70153;SDS011;57519;51.494;-2.626;2023-06-10T14:16:31;18.58;;;8.30;;
70153;SDS011;57519;51.494;-2.626;2023-06-10T14:18:57;19.53;;;8.33;;
70153;SDS011;57519;51.494;-2.626;2023-06-10T14:21:22;20.73;;;9.37;;
70153;SDS011;57519;51.494;-2.626;2023-06-10T14:23:48;19.20;;;8.73;;
70153;SDS011;57519;51.494;-2.626;2023-06-10T14:26:14;23.80;;;8.55;;
70153;SDS011;57519;51.494;-2.626;2023-06-10T14:28:40;22.20;;;9.00;;
70153;SDS011;57519;51.494;-2.626;2023-06-10T14:31:05;21.93;;;9.67;;
70153;SDS011;57519;51.494;-2.626;2023-06-10T14:33:32;17.88;;;8.32;;
70153;SDS011;57519;51.494;-2.626;2023-06-10T14:35:57;17.17;;;8.97;;
70153;SDS011;57519;51.494;-2.626;2023-06-10T14:38:23;16.23;;;8.13;;
70153;SDS011;57519;51.494;-2.626;2023-06-10T14:40:49;19.15;;;8.63;;
70153;SDS011;57519;51.494;-2.626;2023-06-10T14:43:15;19.33;;;8.60;;
70153;SDS011;57519;51.494;-2.626;2023-06-10T14:45:40;18.37;;;9.57;;
70153;SDS011;57519;51.494;-2.626;2023-06-10T14:48:06;17.10;;;8.80;;
70153;SDS011;57519;51.494;-2.626;2023-06-10T14:50:32;14.90;;;8.55;;
70153;SDS011;57519;51.494;-2.626;2023-06-10T14:52:59;17.58;;;8.52;;
70153;SDS011;57519;51.494;-2.626;2023-06-10T14:55:25;20.33;;;9.20;;
70153;SDS011;57519;51.494;-2.626;2023-06-10T14:57:50;16.70;;;9.05;;
70153;SDS011;57519;51.494;-2.626;2023-06-10T15:00:19;15.75;;;8.02;;
70153;SDS011;57519;51.494;-2.626;2023-06-10T15:02:47;19.30;;;7.97;;
70153;SDS011;57519;51.494;-2.626;2023-06-10T15:05:13;22.17;;;8.65;;
70153;SDS011;57519;51.494;-2.626;2023-06-10T15:07:40;16.70;;;8.35;;
70153;SDS011;57519;51.494;-2.626;2023-06-10T15:10:06;16.40;;;8.10;;
70153;SDS011;57519;51.494;-2.626;2023-06-10T15:12:31;20.30;;;9.32;;
70153;SDS011;57519;51.494;-2.626;2023-06-10T15:14:57;20.57;;;9.50;;
70153;SDS011;57519;51.494;-2.626;2023-06-10T15:17:22;16.20;;;8.70;;
70153;SDS011;57519;51.494;-2.626;2023-06-10T15:19:48;20.00;;;9.40;;
70153;SDS011;57519;51.494;-2.626;2023-06-10T15:22:13;20.40;;;8.03;;
70153;SDS011;57519;51.494;-2.626;2023-06-10T15:24:38;21.87;;;8.77;;
70153;SDS011;57519;51.494;-2.626;2023-06-10T15:27:04;16.87;;;9.20;;
70153;SDS011;57519;51.494;-2.626;2023-06-10T15:29:30;16.67;;;8.73;;
70153;SDS011;57519;51.494;-2.626;2023-06-10T15:31:56;17.27;;;8.90;;
70153;SDS011;57519;51.494;-2.626;2023-06-10T15:34:22;19.67;;;8.05;;
70153;SDS011;57519;51.494;-2.626;2023-06-10T15:36:47;21.43;;;9.43;;
70153;SDS011;57519;51.494;-2.626;2023-06-10T15:39:13;19.60;;;8.53;;
70153;SDS011;57519;51.494;-2.626;2023-06-10T15:41:39;16.20;;;8.82;;
70153;SDS011;57519;51.494;-2.626;2023-06-10T15:44:04;20.33;;;9.60;;
70153;SDS011;57519;51.494;-2.626;2023-06-10T15:46:30;17.60;;;9.03;;
70153;SDS011;57519;51.494;-2.626;2023-06-10T15:48:56;17.30;;;9.10;;